createdAt,value
2022-09-01T00:01:18.610Z,4.43
2022-09-01T00:03:49.111Z,5.07
2022-09-01T00:06:22.465Z,7.30
2022-09-01T00:08:50.195Z,6.65
2022-09-01T00:11:17.515Z,9.85
2022-09-01T00:13:44.849Z,7.05
2022-09-01T00:16:15.604Z,4.78
2022-09-01T00:18:43.381Z,6.72
2022-09-01T00:21:11.148Z,5.47
2022-09-01T00:23:38.346Z,5.38
2022-09-01T00:26:05.527Z,5.00
2022-09-01T00:28:36.161Z,5.80
2022-09-01T00:31:04.536Z,5.47
2022-09-01T00:33:31.738Z,9.57
2022-09-01T00:35:58.951Z,4.88
2022-09-01T00:38:26.146Z,7.30
2022-09-01T00:40:53.917Z,6.45
2022-09-01T00:43:25.360Z,7.03
2022-09-01T00:45:52.792Z,5.70
2022-09-01T00:48:21.820Z,7.32
2022-09-01T00:50:49.463Z,6.95
2022-09-01T00:53:18.156Z,6.20
2022-09-01T00:55:45.511Z,6.03
2022-09-01T00:58:19.672Z,6.35
2022-09-01T01:00:47.441Z,9.68
2022-09-01T01:03:14.795Z,6.88
2022-09-01T01:05:46.716Z,8.25
2022-09-01T01:08:13.880Z,6.07
2022-09-01T01:10:41.567Z,9.75
2022-09-01T01:13:13.927Z,9.27
2022-09-01T01:15:43.927Z,7.97
2022-09-01T01:18:12.098Z,7.65
2022-09-01T01:20:58.154Z,6.18
2022-09-01T01:23:47.021Z,5.47
2022-09-01T01:26:14.171Z,7.03
2022-09-01T01:28:41.928Z,7.97
2022-09-01T01:31:13.015Z,9.05
2022-09-01T01:33:42.806Z,6.70
2022-09-01T01:36:12.757Z,5.85
2022-09-01T01:38:43.206Z,8.38
2022-09-01T01:41:11.082Z,5.90
2022-09-01T01:43:38.828Z,6.45
2022-09-01T01:46:08.228Z,7.35
2022-09-01T01:48:37.677Z,6.43
2022-09-01T01:51:05.771Z,6.00
2022-09-01T01:53:33.129Z,4.65
2022-09-01T01:56:00.947Z,4.88
2022-09-01T01:58:29.012Z,5.03
2022-09-01T02:00:56.379Z,4.95
2022-09-01T02:03:25.043Z,5.30
2022-09-01T02:05:52.721Z,10.30
2022-09-01T02:08:21.971Z,9.40
2022-09-01T02:10:50.548Z,7.82
2022-09-01T02:13:18.100Z,7.97
2022-09-01T02:15:49.088Z,6.80
2022-09-01T02:18:20.272Z,6.00
2022-09-01T02:20:49.429Z,5.38
2022-09-01T02:23:23.282Z,9.23
2022-09-01T02:26:14.496Z,7.10
2022-09-01T02:28:42.483Z,6.65
2022-09-01T02:31:11.255Z,5.72
2022-09-01T02:33:38.886Z,6.80
2022-09-01T02:36:09.964Z,7.13
2022-09-01T02:38:38.854Z,8.20
2022-09-01T02:41:06.920Z,7.90
2022-09-01T02:43:34.078Z,7.38
2022-09-01T02:46:01.874Z,9.32
2022-09-01T02:48:35.849Z,10.90
2022-09-01T02:51:16.728Z,12.55
2022-09-01T02:53:43.995Z,17.48
2022-09-01T02:56:14.612Z,16.25
2022-09-01T02:58:48.408Z,18.13
2022-09-01T03:01:25.902Z,21.15
2022-09-01T03:03:54.135Z,23.48
2022-09-01T03:06:23.979Z,21.65
2022-09-01T03:08:54.570Z,17.80
2022-09-01T03:11:23.322Z,18.60
2022-09-01T03:13:50.442Z,17.45
2022-09-01T03:16:17.708Z,14.18
2022-09-01T03:18:44.899Z,15.10
2022-09-01T03:21:17.135Z,15.07
2022-09-01T03:23:44.885Z,10.18
2022-09-01T03:26:12.216Z,10.02
2022-09-01T03:28:39.415Z,9.82
2022-09-01T03:31:07.348Z,10.63
2022-09-01T03:33:34.504Z,9.98
2022-09-01T03:36:01.719Z,9.63
2022-09-01T03:38:28.946Z,9.10
2022-09-01T03:41:01.195Z,11.20
2022-09-01T03:43:35.502Z,8.75
2022-09-01T03:46:03.491Z,9.43
2022-09-01T03:48:31.724Z,10.95
2022-09-01T03:51:02.464Z,9.48
2022-09-01T03:53:30.296Z,6.05
2022-09-01T03:55:57.679Z,7.07
2022-09-01T03:58:25.029Z,7.32
2022-09-01T04:00:57.102Z,6.47
2022-09-01T04:03:29.018Z,7.80
2022-09-01T04:05:58.361Z,10.80
2022-09-01T04:08:33.028Z,8.65
2022-09-01T04:11:02.732Z,8.18
2022-09-01T04:13:31.126Z,8.93
2022-09-01T04:15:58.650Z,9.18
2022-09-01T04:18:25.831Z,7.20
2022-09-01T04:20:56.980Z,5.75
2022-09-01T04:23:30.053Z,7.00
2022-09-01T04:26:00.227Z,9.90
2022-09-01T04:28:33.386Z,9.73
2022-09-01T04:31:05.860Z,10.50
2022-09-01T04:33:38.953Z,10.90
2022-09-01T04:36:27.421Z,9.45
2022-09-01T04:38:56.130Z,8.98
2022-09-01T04:41:25.705Z,11.05
2022-09-01T04:43:53.058Z,11.15
2022-09-01T04:46:21.199Z,11.38
2022-09-01T04:48:48.474Z,13.65
2022-09-01T04:51:17.863Z,15.02
2022-09-01T04:53:48.697Z,16.85
2022-09-01T04:56:19.702Z,26.77
2022-09-01T04:58:47.899Z,31.88
2022-09-01T05:01:18.538Z,20.05
2022-09-01T05:03:45.941Z,7.97
2022-09-01T05:06:13.833Z,6.60
2022-09-01T05:08:42.003Z,9.90
2022-09-01T05:11:12.151Z,7.90
2022-09-01T05:13:39.719Z,8.57
2022-09-01T05:16:13.084Z,7.82
2022-09-01T05:18:40.885Z,9.27
2022-09-01T05:21:09.943Z,10.45
2022-09-01T05:23:38.361Z,11.07
2022-09-01T05:26:14.649Z,10.85
2022-09-01T05:28:41.901Z,12.30
2022-09-01T05:31:10.079Z,10.98
2022-09-01T05:33:39.737Z,13.70
2022-09-01T05:36:08.387Z,8.50
2022-09-01T05:38:35.586Z,9.77
2022-09-01T05:41:04.175Z,7.72
2022-09-01T05:43:32.486Z,7.75
2022-09-01T05:46:07.102Z,6.10
2022-09-01T05:48:40.264Z,5.90
2022-09-01T05:51:22.362Z,5.10
2022-09-01T05:53:58.934Z,5.45
2022-09-01T05:56:29.666Z,5.78
2022-09-01T06:01:50.261Z,5.25
2022-09-01T06:04:17.906Z,5.35
2022-09-01T06:07:05.308Z,7.57
2022-09-01T06:09:33.593Z,5.80
2022-09-01T06:12:02.799Z,4.90
2022-09-01T06:14:29.943Z,4.60
2022-09-01T06:16:57.100Z,8.43
2022-09-01T06:19:24.220Z,5.90
2022-09-01T06:21:51.406Z,8.45
2022-09-01T06:24:18.594Z,9.65
2022-09-01T06:26:46.823Z,6.82
2022-09-01T06:29:17.007Z,8.23
2022-09-01T06:31:45.940Z,9.82
2022-09-01T06:34:17.672Z,8.32
2022-09-01T06:36:45.723Z,5.07
2022-09-01T06:39:19.915Z,7.95
2022-09-01T06:41:49.450Z,5.00
2022-09-01T06:44:22.329Z,6.22
2022-09-01T06:46:50.737Z,6.90
2022-09-01T06:49:18.012Z,6.15
2022-09-01T06:51:48.052Z,6.95
2022-09-01T06:54:16.380Z,5.53
2022-09-01T06:56:44.955Z,5.72
2022-09-01T06:59:19.334Z,5.32
2022-09-01T07:01:49.016Z,4.45
2022-09-01T07:04:22.162Z,6.22
2022-09-01T07:07:00.408Z,6.85
2022-09-01T07:09:38.634Z,3.60
2022-09-01T07:12:30.170Z,5.90
2022-09-01T07:17:53.095Z,5.10
2022-09-01T07:20:23.472Z,5.45
2022-09-01T07:23:07.134Z,7.15
2022-09-01T07:26:01.062Z,3.67
2022-09-01T07:28:36.106Z,13.77
2022-09-01T07:39:49.946Z,5.50
2022-09-01T07:45:26.201Z,13.77
2022-09-01T07:47:54.041Z,5.80
2022-09-01T07:53:09.344Z,5.20
2022-09-01T07:55:37.453Z,4.13
2022-09-01T07:58:04.659Z,4.53
2022-09-01T08:00:33.318Z,5.53
2022-09-01T08:03:01.353Z,4.50
2022-09-01T08:05:28.975Z,4.72
2022-09-01T08:07:56.703Z,5.72
2022-09-01T08:10:23.833Z,9.57
2022-09-01T08:12:59.511Z,3.70
2022-09-01T08:16:06.686Z,4.95
2022-09-01T08:18:14.578Z,3.42
2022-09-01T08:20:45.483Z,5.50
2022-09-01T08:23:13.280Z,5.07
2022-09-01T08:25:42.504Z,6.85
2022-09-01T08:28:09.853Z,5.07
2022-09-01T08:30:39.003Z,4.65
2022-09-01T08:33:13.174Z,3.15
2022-09-01T08:35:41.163Z,4.10
2022-09-01T08:38:08.305Z,4.35
2022-09-01T08:40:35.489Z,3.55
2022-09-01T08:43:35.204Z,2.53
2022-09-01T08:46:05.222Z,2.85
2022-09-01T08:51:25.030Z,4.30
2022-09-01T08:54:04.404Z,2.40
2022-09-01T08:56:32.174Z,3.45
2022-09-01T08:59:00.240Z,4.32
2022-09-01T09:01:32.397Z,4.30
2022-09-01T09:04:14.785Z,2.50
2022-09-01T09:07:01.030Z,1.92
2022-09-01T09:09:34.019Z,3.28
2022-09-01T09:12:04.703Z,8.60
2022-09-01T09:14:50.220Z,7.75
2022-09-01T09:17:18.438Z,4.15
2022-09-01T09:19:45.613Z,3.50
2022-09-01T09:22:14.206Z,5.13
2022-09-01T09:24:48.101Z,1.92
2022-09-01T09:27:26.928Z,4.00
2022-09-01T09:29:54.414Z,2.17
2022-09-01T09:32:23.019Z,1.75
2022-09-01T09:34:52.976Z,3.35
2022-09-01T09:37:32.058Z,3.38
2022-09-01T09:40:28.413Z,3.60
2022-09-01T09:42:55.582Z,1.50
2022-09-01T09:45:22.870Z,2.72
2022-09-01T09:47:49.995Z,9.48
2022-09-01T09:50:20.134Z,4.05
2022-09-01T09:52:48.104Z,5.60
2022-09-01T09:55:22.268Z,1.45
2022-09-01T09:57:49.498Z,3.53
2022-09-01T10:00:25.872Z,2.53
2022-09-01T10:03:12.556Z,3.00
2022-09-01T10:05:57.948Z,1.73
2022-09-01T10:08:28.758Z,2.10
2022-09-01T10:10:58.476Z,1.30
2022-09-01T10:13:26.949Z,3.13
2022-09-01T10:15:55.959Z,1.80
2022-09-01T10:18:31.003Z,3.42
2022-09-01T10:21:00.481Z,3.15
2022-09-01T10:23:31.152Z,1.67
2022-09-01T10:26:05.995Z,1.88
2022-09-01T10:28:33.556Z,2.17
2022-09-01T10:31:01.701Z,1.05
2022-09-01T10:33:28.970Z,1.42
2022-09-01T10:35:56.204Z,3.83
2022-09-01T10:38:24.916Z,5.13
2022-09-01T10:41:07.737Z,2.10
2022-09-01T10:43:41.470Z,2.00
2022-09-01T10:46:24.772Z,3.15
2022-09-01T10:48:55.764Z,3.30
2022-09-01T10:51:29.042Z,1.42
2022-09-01T10:54:03.998Z,3.25
2022-09-01T10:56:43.692Z,2.08
2022-09-01T11:02:35.258Z,1.52
2022-09-01T11:05:00.922Z,2.00
2022-09-01T11:07:50.718Z,2.45
2022-09-01T11:10:34.854Z,6.75
2022-09-01T11:13:21.758Z,2.80
2022-09-01T11:15:48.935Z,1.80
2022-09-01T11:18:19.433Z,1.42
2022-09-01T11:20:46.863Z,2.05
2022-09-01T11:23:33.957Z,7.40
2022-09-01T11:26:19.472Z,2.08
2022-09-01T11:28:47.303Z,1.27
2022-09-01T11:31:16.013Z,1.38
2022-09-01T11:33:58.556Z,1.75
2022-09-01T11:36:29.175Z,1.70
2022-09-01T11:38:59.969Z,3.05
2022-09-01T11:41:33.038Z,4.07
2022-09-01T11:44:00.812Z,1.85
2022-09-01T11:46:33.677Z,4.00
2022-09-01T11:49:02.323Z,1.85
2022-09-01T11:51:29.960Z,1.30
2022-09-01T11:54:00.575Z,1.58
2022-09-01T11:56:28.132Z,2.85
2022-09-01T11:58:55.271Z,2.72
2022-09-01T12:01:31.290Z,2.45
2022-09-01T12:03:58.926Z,2.03
2022-09-01T12:06:26.958Z,2.78
2022-09-01T12:09:02.241Z,1.10
2022-09-01T12:11:31.007Z,1.80
2022-09-01T12:14:10.371Z,2.28
2022-09-01T12:16:40.130Z,4.60
2022-09-01T12:19:07.387Z,3.28
2022-09-01T12:21:40.431Z,2.47
2022-09-01T12:24:20.762Z,2.50
2022-09-01T12:26:48.405Z,2.97
2022-09-01T12:29:15.938Z,2.15
2022-09-01T12:31:43.652Z,1.77
2022-09-01T12:34:26.125Z,0.88
2022-09-01T12:37:11.877Z,1.23
2022-09-01T12:39:40.071Z,1.40
2022-09-01T12:42:19.323Z,1.90
2022-09-01T12:44:50.992Z,2.33
2022-09-01T12:47:36.766Z,1.33
2022-09-01T12:50:07.971Z,2.13
2022-09-01T12:52:35.668Z,1.02
2022-09-01T12:55:03.101Z,2.13
2022-09-01T12:57:31.162Z,2.95
2022-09-01T13:00:08.111Z,3.28
2022-09-01T13:02:36.831Z,2.05
2022-09-01T13:05:27.121Z,4.03
2022-09-01T13:07:57.827Z,1.83
2022-09-01T13:10:25.306Z,3.67
2022-09-01T13:12:52.746Z,3.20
2022-09-01T13:15:20.338Z,2.47
2022-09-01T13:17:47.743Z,3.10
2022-09-01T13:20:14.945Z,3.13
2022-09-01T13:22:42.492Z,2.55
2022-09-01T13:25:10.871Z,4.88
2022-09-01T13:27:38.147Z,2.15
2022-09-01T13:30:06.978Z,2.30
2022-09-01T13:32:34.340Z,1.70
2022-09-01T13:35:01.712Z,2.17
2022-09-01T13:37:29.831Z,1.23
2022-09-01T13:39:57.011Z,1.00
2022-09-01T13:42:24.267Z,2.08
2022-09-01T13:44:57.024Z,1.45
2022-09-01T13:47:29.224Z,1.27
2022-09-01T13:50:13.506Z,1.55
2022-09-01T13:52:42.772Z,1.83
2022-09-01T13:55:13.819Z,4.28
2022-09-01T13:57:41.349Z,3.25
2022-09-01T14:00:12.768Z,1.75
2022-09-01T14:02:40.604Z,2.00
2022-09-01T14:05:08.093Z,1.27
2022-09-01T14:07:35.569Z,1.20
2022-09-01T14:10:02.788Z,4.88
2022-09-01T14:12:30.793Z,5.53
2022-09-01T14:15:17.123Z,2.85
2022-09-01T14:17:45.875Z,1.50
2022-09-01T14:20:14.665Z,5.53
2022-09-01T14:22:41.833Z,2.42
2022-09-01T14:25:10.530Z,7.40
2022-09-01T14:27:38.285Z,3.08
2022-09-01T14:30:06.523Z,2.65
2022-09-01T14:32:33.654Z,9.23
2022-09-01T14:35:00.814Z,2.20
2022-09-01T14:37:27.967Z,2.35
2022-09-01T14:39:55.732Z,6.38
2022-09-01T14:42:25.678Z,9.13
2022-09-01T14:44:52.990Z,6.95
2022-09-01T14:47:21.326Z,6.55
2022-09-01T14:49:48.500Z,8.50
2022-09-01T14:52:16.964Z,6.53
2022-09-01T14:54:44.091Z,4.90
2022-09-01T14:59:58.403Z,3.67
2022-09-01T15:02:25.755Z,4.35
2022-09-01T15:04:53.080Z,2.22
2022-09-01T15:07:20.361Z,3.47
2022-09-01T15:09:47.566Z,1.98
2022-09-01T15:12:14.701Z,4.20
2022-09-01T15:14:41.850Z,1.25
2022-09-01T15:17:09.838Z,2.92
2022-09-01T15:19:37.051Z,3.88
2022-09-01T15:22:04.593Z,4.13
2022-09-01T15:24:31.776Z,2.03
2022-09-01T15:26:58.965Z,2.20
2022-09-01T15:29:26.104Z,5.78
2022-09-01T15:31:53.305Z,15.27
2022-09-01T15:34:20.506Z,8.65
2022-09-01T15:36:47.661Z,6.30
2022-09-01T15:39:14.818Z,26.70
2022-09-01T15:41:43.883Z,17.58
2022-09-01T15:44:11.094Z,43.10
2022-09-01T15:46:39.187Z,17.10
2022-09-01T15:49:07.344Z,7.88
2022-09-01T15:51:41.155Z,5.57
2022-09-01T15:54:12.013Z,10.82
2022-09-01T15:56:40.081Z,7.53
2022-09-01T15:59:07.452Z,9.15
2022-09-01T16:01:36.212Z,4.35
2022-09-01T16:04:03.819Z,2.80
2022-09-01T16:06:32.274Z,1.95
2022-09-01T16:08:59.426Z,3.97
2022-09-01T16:11:26.791Z,2.13
2022-09-01T16:13:54.207Z,5.63
2022-09-01T16:16:21.402Z,3.67
2022-09-01T16:18:59.233Z,3.92
2022-09-01T16:21:38.263Z,3.50
2022-09-01T16:24:08.101Z,2.53
2022-09-01T16:26:35.630Z,2.58
2022-09-01T16:29:03.294Z,4.80
2022-09-01T16:31:31.815Z,5.13
2022-09-01T16:34:02.127Z,5.90
2022-09-01T16:36:29.283Z,4.28
2022-09-01T16:39:05.374Z,5.28
2022-09-01T16:41:37.160Z,4.05
2022-09-01T16:44:10.210Z,1.55
2022-09-01T16:46:45.534Z,2.88
2022-09-01T16:49:19.002Z,2.25
2022-09-01T16:51:53.504Z,1.27
2022-09-01T16:54:39.091Z,2.45
2022-09-01T16:57:26.967Z,3.85
2022-09-01T16:59:55.684Z,3.72
2022-09-01T17:02:23.158Z,14.32
2022-09-01T17:04:51.799Z,6.60
2022-09-01T17:07:29.465Z,5.40
2022-09-01T17:10:00.430Z,87.75
2022-09-01T17:12:27.674Z,19.15
2022-09-01T17:14:57.933Z,11.40
2022-09-01T17:17:36.664Z,5.85
2022-09-01T17:20:04.546Z,5.60
2022-09-01T17:22:31.732Z,4.05
2022-09-01T17:27:54.453Z,5.00
2022-09-01T17:30:22.337Z,12.88
2022-09-01T17:32:50.406Z,19.73
2022-09-01T17:35:17.551Z,17.00
2022-09-01T17:37:47.847Z,18.48
2022-09-01T17:40:21.153Z,11.75
2022-09-01T17:42:49.677Z,15.68
2022-09-01T17:45:19.850Z,18.77
2022-09-01T17:47:52.899Z,14.50
2022-09-01T17:50:21.642Z,19.83
2022-09-01T17:53:10.478Z,19.77
2022-09-01T17:55:51.779Z,18.88
2022-09-01T17:58:38.053Z,15.85
2022-09-01T18:01:09.770Z,14.05
2022-09-01T18:03:45.492Z,10.52
2022-09-01T18:06:18.485Z,8.98
2022-09-01T18:08:46.336Z,9.68
2022-09-01T18:11:14.315Z,10.75
2022-09-01T18:13:59.782Z,10.77
2022-09-01T18:16:28.956Z,10.88
2022-09-01T18:18:56.750Z,9.77
2022-09-01T18:21:27.607Z,7.32
2022-09-01T18:24:15.023Z,7.00
2022-09-01T18:26:42.495Z,7.05
2022-09-01T18:29:10.022Z,10.75
2022-09-01T18:31:43.201Z,13.10
2022-09-01T18:34:49.088Z,24.63
2022-09-01T18:37:19.154Z,24.73
2022-09-01T18:40:05.668Z,18.48
2022-09-01T18:42:53.147Z,16.08
2022-09-01T18:45:29.380Z,14.88
2022-09-01T18:47:56.977Z,15.60
2022-09-01T18:50:30.822Z,11.52
2022-09-01T18:53:00.894Z,11.85
2022-09-01T18:55:32.406Z,9.05
2022-09-01T18:58:01.103Z,9.85
2022-09-01T19:00:30.720Z,9.68
2022-09-01T19:03:00.744Z,8.80
2022-09-01T19:05:31.426Z,13.52
2022-09-01T19:08:18.132Z,16.75
2022-09-01T19:11:17.878Z,17.92
2022-09-01T19:13:53.230Z,16.25
2022-09-01T19:16:50.131Z,17.85
2022-09-01T19:19:17.275Z,18.80
2022-09-01T19:21:44.445Z,21.98
2022-09-01T19:24:36.164Z,18.00
2022-09-01T19:27:27.073Z,19.30
2022-09-01T19:29:56.608Z,14.95
2022-09-01T19:32:24.437Z,13.35
2022-09-01T19:34:54.662Z,12.02
2022-09-01T19:37:21.869Z,10.05
2022-09-01T19:39:54.152Z,13.35
2022-09-01T19:42:21.807Z,17.77
2022-09-01T19:45:06.582Z,22.08
2022-09-01T19:47:41.172Z,28.45
2022-09-01T19:50:17.748Z,23.00
2022-09-01T19:53:00.475Z,21.20
2022-09-01T19:55:31.724Z,10.95
2022-09-01T19:58:02.335Z,11.75
2022-09-01T20:00:35.074Z,15.30
2022-09-01T20:03:05.370Z,15.68
2022-09-01T20:05:33.812Z,10.43
2022-09-01T20:08:04.092Z,13.48
2022-09-01T20:10:37.031Z,12.57
2022-09-01T20:13:19.526Z,12.27
2022-09-01T20:15:52.334Z,12.45
2022-09-01T20:18:22.316Z,9.98
2022-09-01T20:20:50.899Z,10.93
2022-09-01T20:23:18.082Z,11.57
2022-09-01T20:25:49.532Z,7.57
2022-09-01T20:28:33.782Z,9.18
2022-09-01T20:31:12.277Z,7.53
2022-09-01T20:33:41.769Z,5.55
2022-09-01T20:36:16.692Z,19.25
2022-09-01T20:39:03.140Z,22.52
2022-09-01T20:41:37.437Z,20.85
2022-09-01T20:44:07.879Z,26.17
2022-09-01T20:46:35.108Z,35.13
2022-09-01T20:49:02.607Z,32.08
2022-09-01T20:51:29.729Z,25.25
2022-09-01T20:54:00.651Z,21.73
2022-09-01T20:56:33.680Z,21.08
2022-09-01T20:59:01.876Z,19.40
2022-09-01T21:01:29.634Z,13.70
2022-09-01T21:04:11.759Z,16.25
2022-09-01T21:06:48.512Z,16.75
2022-09-01T21:09:18.762Z,15.65
2022-09-01T21:11:52.139Z,14.98
2022-09-01T21:14:25.521Z,21.75
2022-09-01T21:17:17.207Z,20.05
2022-09-01T21:19:57.099Z,16.83
2022-09-01T21:22:24.249Z,13.52
2022-09-01T21:24:51.451Z,12.73
2022-09-01T21:27:26.416Z,8.25
2022-09-01T21:30:14.050Z,7.10
2022-09-01T21:32:41.318Z,5.45
2022-09-01T21:35:09.434Z,5.82
2022-09-01T21:37:36.593Z,5.68
2022-09-01T21:40:04.416Z,5.07
2022-09-01T21:42:41.279Z,4.82
2022-09-01T21:45:27.356Z,4.78
2022-09-01T21:47:54.655Z,4.65
2022-09-01T21:50:22.970Z,5.97
2022-09-01T21:52:50.272Z,4.63
2022-09-01T21:55:20.783Z,6.72
2022-09-01T21:57:50.065Z,4.25
2022-09-01T22:00:18.383Z,4.40
2022-09-01T22:02:45.622Z,4.38
2022-09-01T22:05:13.095Z,4.22
2022-09-01T22:07:40.777Z,11.27
2022-09-01T22:10:08.644Z,39.80
2022-09-01T22:12:36.582Z,33.53
2022-09-01T22:15:04.997Z,43.65
2022-09-01T22:17:32.150Z,36.35
2022-09-01T22:19:59.442Z,36.05
2022-09-01T22:22:26.598Z,28.02
2022-09-01T22:24:53.758Z,27.73
2022-09-01T22:27:20.893Z,29.73
2022-09-01T22:29:48.243Z,33.97
2022-09-01T22:32:15.372Z,27.38
2022-09-01T22:34:43.605Z,24.85
2022-09-01T22:37:10.917Z,29.38
2022-09-01T22:39:38.139Z,21.25
2022-09-01T22:42:05.319Z,23.58
2022-09-01T22:44:32.752Z,18.75
2022-09-01T22:46:59.887Z,18.02
2022-09-01T22:49:27.037Z,16.80
2022-09-01T22:51:54.198Z,13.38
2022-09-01T22:54:21.354Z,10.35
2022-09-01T22:56:49.876Z,11.20
2022-09-01T22:59:17.061Z,13.48
2022-09-01T23:01:46.088Z,16.60
2022-09-01T23:04:13.578Z,17.63
2022-09-01T23:06:45.714Z,14.65
2022-09-01T23:09:12.873Z,17.00
2022-09-01T23:11:40.037Z,16.58
2022-09-01T23:14:07.212Z,16.30
2022-09-01T23:16:34.572Z,14.35
2022-09-01T23:19:01.791Z,15.05
2022-09-01T23:21:30.431Z,11.13
2022-09-01T23:23:58.699Z,12.88
2022-09-01T23:26:26.356Z,9.77
2022-09-01T23:28:53.529Z,13.25
2022-09-01T23:31:22.410Z,17.58
2022-09-01T23:33:49.644Z,19.08
2022-09-01T23:36:18.724Z,21.27
2022-09-01T23:38:46.645Z,20.40
2022-09-01T23:41:14.845Z,15.45
2022-09-01T23:43:42.122Z,18.23
2022-09-01T23:46:09.485Z,12.65
2022-09-01T23:48:36.724Z,14.07
2022-09-01T23:51:10.296Z,15.13
2022-09-01T23:53:37.756Z,11.73
2022-09-01T23:56:05.541Z,8.93
2022-09-01T23:58:32.747Z,6.07
